Time;durP1;ratioP1;P1;durP2;ratioP2;P2;SDS_P1;SDS_P2;PMS_P1;PMS_P2;Temp;Humidity;BMP_temperature;BMP_pressure;BME280_temperature;BME280_humidity;BME280_pressure;Samples;Min_cycle;Max_cycle;Signal;HPM_P1;HPM_P2
2021/07/22 00:01:05;;;;;;;8.13;4.00;;;;;;;;;;5093710;28;20024;-89
2021/07/22 00:03:32;;;;;;;10.63;4.22;;;;;;;;;;5095714;28;20036;-91
2021/07/22 00:06:00;;;;;;;7.72;3.83;;;;;;;;;;5094592;28;20020;-89
2021/07/22 00:08:27;;;;;;;8.68;4.18;;;;;;;;;;5093984;28;20035;-90
2021/07/22 00:10:53;;;;;;;5.85;3.50;;;;;;;;;;5094062;28;20020;-89
2021/07/22 00:13:20;;;;;;;8.27;4.32;;;;;;;;;;5094098;28;20078;-90
2021/07/22 00:15:46;;;;;;;6.50;3.83;;;;;;;;;;5093489;28;20439;-90
2021/07/22 00:18:12;;;;;;;7.88;3.47;;;;;;;;;;5095822;28;20028;-92
2021/07/22 00:20:39;;;;;;;6.43;3.70;;;;;;;;;;5097877;28;20055;-89
2021/07/22 00:23:05;;;;;;;8.43;4.10;;;;;;;;;;5098020;28;20173;-91
2021/07/22 00:25:31;;;;;;;8.30;4.03;;;;;;;;;;5098001;28;20028;-90
2021/07/22 00:27:58;;;;;;;6.63;3.85;;;;;;;;;;5098166;28;20461;-90
2021/07/22 00:30:24;;;;;;;8.45;3.90;;;;;;;;;;5097778;28;20024;-89
2021/07/22 00:32:50;;;;;;;10.80;4.55;;;;;;;;;;5097617;28;20366;-90
2021/07/22 00:35:17;;;;;;;7.13;3.92;;;;;;;;;;5100884;28;20095;-89
2021/07/22 00:37:43;;;;;;;6.68;3.30;;;;;;;;;;5101044;28;20085;-90
2021/07/22 00:40:09;;;;;;;6.78;3.80;;;;;;;;;;5118091;28;20015;-91
2021/07/22 00:42:54;;;;;;;6.10;3.47;;;;;;;;;;5118028;28;20407;-90
2021/07/22 00:45:21;;;;;;;7.03;4.05;;;;;;;;;;5117889;28;20027;-90
2021/07/22 00:47:47;;;;;;;7.13;3.88;;;;;;;;;;5117924;28;20051;-90
2021/07/22 00:50:13;;;;;;;6.18;3.80;;;;;;;;;;5117181;28;20547;-91
2021/07/22 00:52:39;;;;;;;8.55;4.03;;;;;;;;;;5117697;28;20028;-90
2021/07/22 00:55:06;;;;;;;8.23;4.03;;;;;;;;;;5118288;28;20377;-90
2021/07/22 00:57:32;;;;;;;8.00;3.95;;;;;;;;;;5117536;28;20434;-90
2021/07/22 00:59:59;;;;;;;8.48;4.10;;;;;;;;;;5117876;28;20034;-91
2021/07/22 01:02:25;;;;;;;7.50;4.55;;;;;;;;;;5117549;28;20035;-91
2021/07/22 01:04:51;;;;;;;8.68;5.57;;;;;;;;;;5116858;28;20020;-90
2021/07/22 01:07:18;;;;;;;8.95;4.78;;;;;;;;;;5117752;28;20114;-89
2021/07/22 01:09:44;;;;;;;7.38;4.05;;;;;;;;;;5118066;28;20085;-90
2021/07/22 01:12:10;;;;;;;7.65;4.10;;;;;;;;;;5119027;28;20067;-89
2021/07/22 01:14:36;;;;;;;7.15;3.80;;;;;;;;;;5118475;28;20468;-89
2021/07/22 01:17:07;;;;;;;7.55;3.58;;;;;;;;;;5117475;28;20065;-90
2021/07/22 01:19:35;;;;;;;6.85;4.13;;;;;;;;;;5117232;28;20035;-90
2021/07/22 01:22:01;;;;;;;6.38;3.45;;;;;;;;;;5118118;28;20076;-90
2021/07/22 01:24:27;;;;;;;6.47;4.03;;;;;;;;;;5117386;28;20024;-89
2021/07/22 01:26:54;;;;;;;10.20;3.97;;;;;;;;;;5100470;28;20033;-89
2021/07/22 01:29:20;;;;;;;9.27;4.38;;;;;;;;;;5117943;28;20016;-90
2021/07/22 01:31:47;;;;;;;11.23;4.80;;;;;;;;;;5117796;28;20024;-89
2021/07/22 01:34:13;;;;;;;7.35;4.22;;;;;;;;;;5117009;28;20024;-90
2021/07/22 01:36:39;;;;;;;8.90;4.13;;;;;;;;;;5113734;28;20051;-89
2021/07/22 01:39:05;;;;;;;6.78;4.22;;;;;;;;;;5096977;28;20035;-89
2021/07/22 01:41:33;;;;;;;7.28;4.22;;;;;;;;;;5096957;28;20488;-88
2021/07/22 01:43:59;;;;;;;6.30;4.13;;;;;;;;;;5096297;28;20131;-89
2021/07/22 01:46:26;;;;;;;11.30;4.13;;;;;;;;;;5097943;28;20017;-89
2021/07/22 01:48:53;;;;;;;6.95;3.97;;;;;;;;;;5096244;28;20056;-89
2021/07/22 01:51:19;;;;;;;9.38;4.22;;;;;;;;;;5097697;28;20524;-89
2021/07/22 01:53:46;;;;;;;8.60;4.22;;;;;;;;;;5095970;28;20032;-89
2021/07/22 01:56:12;;;;;;;8.50;3.90;;;;;;;;;;5096038;28;20036;-89
2021/07/22 01:58:38;;;;;;;8.82;3.97;;;;;;;;;;5096483;28;20032;-89
2021/07/22 02:01:05;;;;;;;8.73;4.45;;;;;;;;;;5096323;28;20058;-89
2021/07/22 02:03:31;;;;;;;13.05;4.50;;;;;;;;;;5095679;28;20077;-88
2021/07/22 02:05:58;;;;;;;8.63;4.20;;;;;;;;;;5096843;28;20031;-89
2021/07/22 02:08:24;;;;;;;8.20;4.28;;;;;;;;;;5096318;28;20106;-89
2021/07/22 02:10:50;;;;;;;8.98;4.32;;;;;;;;;;5096343;28;20024;-89
2021/07/22 02:13:17;;;;;;;6.88;4.13;;;;;;;;;;5096043;28;20031;-88
2021/07/22 02:15:43;;;;;;;11.27;3.63;;;;;;;;;;5095875;28;20024;-89
2021/07/22 02:18:09;;;;;;;8.75;3.80;;;;;;;;;;5096994;28;20032;-89
2021/07/22 02:20:37;;;;;;;8.27;4.28;;;;;;;;;;5099784;28;20024;-88
2021/07/22 02:23:03;;;;;;;8.73;3.67;;;;;;;;;;5095804;28;20035;-89
2021/07/22 02:25:29;;;;;;;5.82;3.38;;;;;;;;;;5095640;28;20024;-89
2021/07/22 02:27:56;;;;;;;9.35;3.65;;;;;;;;;;5097244;28;20603;-88
2021/07/22 02:30:22;;;;;;;8.52;3.97;;;;;;;;;;5095398;28;20484;-88
2021/07/22 02:32:48;;;;;;;6.03;3.47;;;;;;;;;;5095649;28;20123;-89
2021/07/22 02:35:15;;;;;;;5.72;3.30;;;;;;;;;;5096877;28;20032;-90
2021/07/22 02:37:41;;;;;;;6.32;3.50;;;;;;;;;;5115979;28;20039;-89
2021/07/22 02:40:08;;;;;;;6.50;3.60;;;;;;;;;;5115675;28;20023;-89
2021/07/22 02:42:34;;;;;;;8.18;4.00;;;;;;;;;;5115205;28;20031;-89
2021/07/22 02:45:01;;;;;;;7.55;3.85;;;;;;;;;;5115774;28;20055;-89
2021/07/22 02:47:27;;;;;;;7.97;3.92;;;;;;;;;;5115531;28;20053;-89
2021/07/22 02:49:53;;;;;;;9.48;4.35;;;;;;;;;;5114562;28;20058;-89
2021/07/22 02:52:20;;;;;;;6.18;3.55;;;;;;;;;;5115556;28;20097;-89
2021/07/22 02:54:46;;;;;;;7.65;3.60;;;;;;;;;;5115428;28;20023;-89
2021/07/22 02:57:14;;;;;;;5.95;3.20;;;;;;;;;;5115722;28;20123;-89
2021/07/22 02:59:40;;;;;;;8.73;4.30;;;;;;;;;;5115293;28;20075;-89
2021/07/22 03:02:06;;;;;;;7.53;3.72;;;;;;;;;;5115161;28;20116;-89
2021/07/22 03:04:32;;;;;;;13.43;4.00;;;;;;;;;;5114642;28;20024;-89
2021/07/22 03:06:59;;;;;;;6.95;3.70;;;;;;;;;;5115167;28;20507;-90
2021/07/22 03:09:25;;;;;;;7.22;3.47;;;;;;;;;;5115863;28;20034;-89
2021/07/22 03:11:51;;;;;;;6.05;3.45;;;;;;;;;;5115221;28;20452;-88
2021/07/22 03:14:18;;;;;;;7.18;3.60;;;;;;;;;;5115942;28;20357;-89
2021/07/22 03:16:44;;;;;;;5.60;3.17;;;;;;;;;;5115015;28;20046;-88
2021/07/22 03:19:10;;;;;;;7.15;4.10;;;;;;;;;;5114495;28;20026;-88
2021/07/22 03:21:37;;;;;;;6.43;3.47;;;;;;;;;;5115254;28;20070;-90
2021/07/22 03:24:03;;;;;;;8.18;3.78;;;;;;;;;;5116213;28;20388;-88
2021/07/22 03:26:29;;;;;;;9.95;4.45;;;;;;;;;;5115353;28;20475;-89
2021/07/22 03:28:56;;;;;;;6.35;3.42;;;;;;;;;;5114203;28;20472;-90
2021/07/22 03:31:22;;;;;;;6.57;3.70;;;;;;;;;;5114737;28;20019;-87
2021/07/22 03:33:48;;;;;;;6.82;3.60;;;;;;;;;;5114076;28;20031;-89
2021/07/22 03:36:14;;;;;;;6.90;3.42;;;;;;;;;;5114521;28;20404;-88
2021/07/22 03:38:40;;;;;;;7.65;3.90;;;;;;;;;;5115098;28;20027;-88
2021/07/22 03:41:06;;;;;;;10.02;4.03;;;;;;;;;;5115492;28;20024;-88
2021/07/22 03:43:32;;;;;;;8.68;3.53;;;;;;;;;;5114103;28;20024;-88
2021/07/22 03:45:59;;;;;;;10.40;3.95;;;;;;;;;;5097846;28;20037;-89
2021/07/22 03:48:26;;;;;;;7.30;3.70;;;;;;;;;;5114005;28;20034;-89
2021/07/22 03:50:52;;;;;;;7.53;4.00;;;;;;;;;;5114947;28;20024;-90
2021/07/22 03:53:18;;;;;;;7.45;3.97;;;;;;;;;;5117597;28;20425;-89
2021/07/22 03:55:44;;;;;;;10.82;3.88;;;;;;;;;;5119139;28;20028;-89
2021/07/22 03:58:10;;;;;;;9.95;4.07;;;;;;;;;;5119040;28;20020;-89
2021/07/22 04:00:36;;;;;;;10.10;4.20;;;;;;;;;;5119168;28;20077;-89
2021/07/22 04:03:04;;;;;;;9.10;3.55;;;;;;;;;;5118035;28;20118;-88
2021/07/22 04:05:30;;;;;;;8.07;3.55;;;;;;;;;;5118757;28;20016;-89
2021/07/22 04:07:57;;;;;;;6.32;3.28;;;;;;;;;;5119713;28;20028;-90
2021/07/22 04:10:24;;;;;;;8.98;3.60;;;;;;;;;;5119220;28;20073;-89
2021/07/22 04:13:00;;;;;;;7.75;3.60;;;;;;;;;;5120718;28;20031;-90
2021/07/22 04:15:26;;;;;;;7.32;3.78;;;;;;;;;;5119456;28;20027;-89
2021/07/22 04:17:53;;;;;;;6.78;3.17;;;;;;;;;;5118606;28;20042;-90
2021/07/22 04:20:20;;;;;;;5.47;3.05;;;;;;;;;;5118248;28;20099;-89
2021/07/22 04:22:46;;;;;;;11.73;3.65;;;;;;;;;;5118033;28;20039;-90
2021/07/22 04:25:12;;;;;;;5.13;2.72;;;;;;;;;;5119760;28;20042;-91
2021/07/22 04:27:39;;;;;;;5.30;2.70;;;;;;;;;;5118153;28;20019;-90
2021/07/22 04:30:05;;;;;;;6.47;2.63;;;;;;;;;;5118059;28;20031;-89
2021/07/22 04:32:31;;;;;;;6.70;2.90;;;;;;;;;;5118037;28;20353;-89
2021/07/22 04:34:57;;;;;;;4.70;2.25;;;;;;;;;;5117840;28;20034;-89
2021/07/22 04:37:23;;;;;;;4.47;2.08;;;;;;;;;;5117450;28;20047;-90
2021/07/22 04:39:49;;;;;;;3.90;2.03;;;;;;;;;;5117444;28;20115;-88
2021/07/22 04:42:16;;;;;;;3.38;1.98;;;;;;;;;;5117828;28;20140;-89
2021/07/22 04:44:42;;;;;;;6.05;2.20;;;;;;;;;;5118018;28;20024;-90
2021/07/22 04:47:08;;;;;;;5.38;2.17;;;;;;;;;;5117755;28;20027;-91
2021/07/22 04:49:34;;;;;;;6.03;2.20;;;;;;;;;;5116659;28;20023;-87
2021/07/22 04:52:00;;;;;;;3.88;2.13;;;;;;;;;;5116296;28;20024;-87
2021/07/22 04:54:26;;;;;;;3.08;1.70;;;;;;;;;;5118445;28;20076;-85
2021/07/22 04:56:52;;;;;;;6.85;2.45;;;;;;;;;;5097460;28;20037;-87
2021/07/22 04:59:18;;;;;;;4.68;2.08;;;;;;;;;;5080959;28;20030;-86
2021/07/22 05:01:44;;;;;;;4.78;2.17;;;;;;;;;;5014523;28;20034;-86
2021/07/22 05:04:17;;;;;;;3.70;1.88;;;;;;;;;;5013733;28;20057;-85
2021/07/22 05:06:44;;;;;;;4.63;2.30;;;;;;;;;;5082915;28;20030;-86
2021/07/22 05:09:10;;;;;;;4.18;1.90;;;;;;;;;;5013715;28;20054;-86
2021/07/22 05:11:36;;;;;;;3.72;1.92;;;;;;;;;;5081950;28;20036;-88
2021/07/22 05:14:02;;;;;;;4.72;2.08;;;;;;;;;;5081714;28;20109;-85
2021/07/22 05:16:29;;;;;;;6.95;1.90;;;;;;;;;;5082060;28;20034;-87
2021/07/22 05:18:55;;;;;;;8.77;2.45;;;;;;;;;;5081878;28;20025;-86
2021/07/22 05:21:21;;;;;;;5.00;1.95;;;;;;;;;;5081249;28;20576;-86
2021/07/22 05:23:48;;;;;;;4.45;2.08;;;;;;;;;;5082071;28;20049;-86
2021/07/22 05:26:15;;;;;;;4.35;1.90;;;;;;;;;;5082656;28;20051;-85
2021/07/22 05:28:41;;;;;;;3.47;2.00;;;;;;;;;;5081999;28;20026;-83
2021/07/22 05:31:08;;;;;;;7.72;1.90;;;;;;;;;;5081270;28;20522;-86
2021/07/22 05:33:39;;;;;;;5.63;2.00;;;;;;;;;;5081443;28;20026;-83
2021/07/22 05:36:06;;;;;;;3.55;1.50;;;;;;;;;;5080765;28;20104;-85
2021/07/22 05:38:33;;;;;;;4.15;1.80;;;;;;;;;;5013353;28;20467;-86
2021/07/22 05:41:00;;;;;;;3.45;1.70;;;;;;;;;;5081315;28;20026;-90
2021/07/22 05:43:29;;;;;;;4.47;2.33;;;;;;;;;;5081622;28;20028;-84
2021/07/22 05:45:55;;;;;;;27.45;2.17;;;;;;;;;;5081213;28;20026;-85
2021/07/22 05:48:21;;;;;;;3.65;1.90;;;;;;;;;;5013283;28;20083;-85
2021/07/22 05:50:49;;;;;;;5.32;2.08;;;;;;;;;;5081116;28;20033;-84
2021/07/22 05:53:15;;;;;;;5.88;2.03;;;;;;;;;;5080616;28;20033;-85
2021/07/22 05:55:42;;;;;;;3.63;1.80;;;;;;;;;;5013553;28;20049;-87
2021/07/22 05:58:08;;;;;;;6.55;1.80;;;;;;;;;;5080894;28;20058;-85
2021/07/22 06:00:34;;;;;;;4.95;1.65;;;;;;;;;;5081118;28;20053;-86
2021/07/22 06:03:03;;;;;;;4.32;1.83;;;;;;;;;;5081287;28;20117;-85
2021/07/22 06:05:29;;;;;;;7.30;2.20;;;;;;;;;;5013770;28;20030;-87
2021/07/22 06:07:57;;;;;;;4.05;2.13;;;;;;;;;;5081119;28;20082;-84
2021/07/22 06:10:23;;;;;;;3.75;2.20;;;;;;;;;;5080754;28;20030;-86
2021/07/22 06:12:49;;;;;;;4.47;1.92;;;;;;;;;;5080754;28;20029;-86
2021/07/22 06:15:15;;;;;;;4.00;2.05;;;;;;;;;;5012440;28;20437;-86
2021/07/22 06:17:41;;;;;;;4.75;2.03;;;;;;;;;;5079827;28;20034;-85
2021/07/22 06:20:08;;;;;;;3.70;1.83;;;;;;;;;;5080731;28;20037;-85
2021/07/22 06:22:38;;;;;;;5.07;2.20;;;;;;;;;;5080292;28;20030;-86
2021/07/22 06:25:05;;;;;;;5.55;1.88;;;;;;;;;;5080649;28;20030;-88
2021/07/22 06:27:31;;;;;;;4.53;1.95;;;;;;;;;;5080817;28;20032;-86
2021/07/22 06:30:01;;;;;;;3.85;1.90;;;;;;;;;;5080291;28;20025;-85
2021/07/22 06:32:27;;;;;;;5.40;2.13;;;;;;;;;;5080720;28;20049;-87
2021/07/22 06:34:53;;;;;;;8.57;2.08;;;;;;;;;;5012374;28;20076;-86
2021/07/22 06:37:19;;;;;;;3.28;1.70;;;;;;;;;;5012005;28;20132;-85
2021/07/22 06:39:45;;;;;;;4.00;1.75;;;;;;;;;;5080028;28;20121;-84
2021/07/22 06:42:12;;;;;;;3.75;1.65;;;;;;;;;;5079914;28;20034;-84
2021/07/22 06:44:38;;;;;;;5.35;2.42;;;;;;;;;;5080095;28;20413;-85
2021/07/22 06:47:04;;;;;;;3.75;2.08;;;;;;;;;;5012181;28;20026;-88
2021/07/22 06:49:30;;;;;;;8.30;2.25;;;;;;;;;;5080116;28;20026;-85
2021/07/22 06:51:56;;;;;;;8.13;1.90;;;;;;;;;;5079337;28;20112;-86
2021/07/22 06:54:22;;;;;;;3.40;1.80;;;;;;;;;;5079671;28;20022;-84
2021/07/22 06:56:49;;;;;;;4.93;2.40;;;;;;;;;;5079680;28;20394;-87
2021/07/22 06:59:15;;;;;;;6.18;1.85;;;;;;;;;;5079746;28;20494;-86
2021/07/22 07:01:41;;;;;;;5.63;2.17;;;;;;;;;;5079461;28;20432;-82
2021/07/22 07:04:07;;;;;;;4.60;2.22;;;;;;;;;;5012401;28;20030;-81
2021/07/22 07:06:34;;;;;;;5.13;2.53;;;;;;;;;;5012435;28;20030;-88
2021/07/22 07:09:00;;;;;;;5.53;2.28;;;;;;;;;;5079721;28;20359;-90
2021/07/22 07:11:26;;;;;;;8.00;2.00;;;;;;;;;;5080061;28;20397;-87
2021/07/22 07:13:52;;;;;;;6.55;2.22;;;;;;;;;;5012558;28;20022;-90
2021/07/22 07:16:19;;;;;;;5.20;2.00;;;;;;;;;;5012977;28;20120;-87
2021/07/22 07:18:45;;;;;;;4.28;2.20;;;;;;;;;;5080169;28;20033;-92
2021/07/22 07:21:11;;;;;;;5.32;2.55;;;;;;;;;;5080469;28;20052;-83
2021/07/22 07:23:37;;;;;;;4.25;1.80;;;;;;;;;;5079390;28;20040;-86
2021/07/22 07:26:04;;;;;;;5.18;1.75;;;;;;;;;;5012074;28;20018;-87
2021/07/22 07:28:30;;;;;;;4.50;2.42;;;;;;;;;;5011984;28;20477;-88
2021/07/22 07:30:56;;;;;;;10.23;2.30;;;;;;;;;;5012614;28;20479;-89
2021/07/22 07:33:23;;;;;;;5.60;1.90;;;;;;;;;;5012213;28;20026;-89
2021/07/22 07:35:49;;;;;;;3.75;2.10;;;;;;;;;;5011985;28;20096;-87
2021/07/22 07:38:18;;;;;;;3.78;2.15;;;;;;;;;;5078818;28;20095;-90
2021/07/22 07:40:45;;;;;;;3.85;2.25;;;;;;;;;;5012288;28;20050;-92
2021/07/22 07:43:18;;;;;;;5.47;2.45;;;;;;;;;;5079254;28;20029;-88
2021/07/22 07:45:44;;;;;;;3.08;2.13;;;;;;;;;;5012377;28;20094;-87
2021/07/22 07:48:11;;;;;;;4.97;2.08;;;;;;;;;;5079252;28;20065;-84
2021/07/22 07:50:37;;;;;;;5.78;2.00;;;;;;;;;;5011804;28;20028;-89
2021/07/22 07:53:13;;;;;;;8.35;2.55;;;;;;;;;;5011407;28;20482;-85
2021/07/22 07:55:40;;;;;;;5.25;2.40;;;;;;;;;;5010909;28;20058;-87
2021/07/22 07:58:06;;;;;;;4.95;2.45;;;;;;;;;;5011544;28;20050;-88
2021/07/22 08:00:32;;;;;;;9.75;2.33;;;;;;;;;;5080274;28;20105;-86
2021/07/22 08:02:58;;;;;;;4.55;2.28;;;;;;;;;;5079141;28;20026;-87
2021/07/22 08:05:28;;;;;;;5.90;2.20;;;;;;;;;;5078791;28;20453;-86
2021/07/22 08:07:54;;;;;;;4.93;2.17;;;;;;;;;;5078786;28;20478;-82
2021/07/22 08:10:20;;;;;;;5.18;1.63;;;;;;;;;;5076313;28;20353;-83
2021/07/22 08:12:47;;;;;;;3.65;1.90;;;;;;;;;;5075963;28;20029;-83
2021/07/22 08:15:14;;;;;;;10.52;2.30;;;;;;;;;;5011544;28;20024;-83
2021/07/22 08:17:40;;;;;;;5.57;2.38;;;;;;;;;;5011067;28;20045;-84
2021/07/22 08:20:08;;;;;;;5.03;2.25;;;;;;;;;;5010855;28;20026;-84
2021/07/22 08:22:34;;;;;;;4.13;2.25;;;;;;;;;;5079938;28;20037;-84
2021/07/22 08:25:00;;;;;;;13.40;2.50;;;;;;;;;;5079207;28;20026;-86
2021/07/22 08:27:27;;;;;;;3.15;1.70;;;;;;;;;;5079773;28;20486;-86
2021/07/22 08:29:53;;;;;;;6.53;2.17;;;;;;;;;;5011182;28;20387;-85
2021/07/22 08:32:20;;;;;;;3.55;2.10;;;;;;;;;;5079149;28;20022;-86
2021/07/22 08:34:47;;;;;;;6.90;2.17;;;;;;;;;;5079112;28;20040;-86
2021/07/22 08:37:14;;;;;;;3.80;2.10;;;;;;;;;;5010999;28;20050;-85
2021/07/22 08:39:41;;;;;;;6.50;2.30;;;;;;;;;;5012526;28;20030;-86
2021/07/22 08:42:08;;;;;;;5.35;2.50;;;;;;;;;;5082129;28;20030;-85
2021/07/22 08:44:38;;;;;;;6.07;2.25;;;;;;;;;;5014737;28;20070;-85
2021/07/22 08:47:05;;;;;;;4.85;2.30;;;;;;;;;;5082877;28;20201;-84
2021/07/22 08:49:35;;;;;;;5.80;2.40;;;;;;;;;;5081556;28;20104;-87
2021/07/22 08:52:02;;;;;;;4.07;2.20;;;;;;;;;;5081695;28;20026;-86
2021/07/22 08:54:28;;;;;;;5.00;2.38;;;;;;;;;;5081656;28;20068;-84
2021/07/22 08:56:55;;;;;;;6.32;2.17;;;;;;;;;;5081743;28;20038;-82
2021/07/22 08:59:24;;;;;;;7.57;2.30;;;;;;;;;;5081778;28;20076;-84
2021/07/22 09:01:52;;;;;;;5.55;2.05;;;;;;;;;;5082682;28;20030;-86
2021/07/22 09:04:19;;;;;;;4.65;2.05;;;;;;;;;;5082819;28;20026;-86
2021/07/22 09:06:45;;;;;;;5.57;2.08;;;;;;;;;;5015054;28;20067;-84
2021/07/22 09:09:17;;;;;;;4.03;2.20;;;;;;;;;;5014679;28;20065;-86
2021/07/22 09:12:00;;;;;;;4.95;2.45;;;;;;;;;;5082462;28;20022;-86
2021/07/22 09:14:28;;;;;;;3.63;2.20;;;;;;;;;;5082442;28;20026;-86
2021/07/22 09:16:54;;;;;;;5.70;2.70;;;;;;;;;;5082376;28;20034;-84
2021/07/22 09:19:40;;;;;;;6.10;2.60;;;;;;;;;;5081761;28;20025;-84
2021/07/22 09:22:10;;;;;;;5.75;2.35;;;;;;;;;;5014554;28;20022;-83
2021/07/22 09:25:02;;;;;;;4.50;2.28;;;;;;;;;;5014531;28;20455;-84
2021/07/22 09:27:32;;;;;;;5.27;2.37;;;;;;;;;;5077871;28;20128;-85
2021/07/22 09:29:58;;;;;;;10.27;2.50;;;;;;;;;;5013348;28;20344;-84
2021/07/22 09:32:34;;;;;;;5.47;2.15;;;;;;;;;;5081579;28;20030;-84
2021/07/22 09:35:09;;;;;;;6.63;2.20;;;;;;;;;;5013833;28;20029;-85
2021/07/22 09:37:36;;;;;;;4.70;2.08;;;;;;;;;;5081854;28;20042;-86
2021/07/22 09:40:04;;;;;;;5.50;1.92;;;;;;;;;;5081823;28;20505;-86
2021/07/22 09:42:40;;;;;;;5.43;2.08;;;;;;;;;;5013666;28;20061;-85
2021/07/22 09:45:16;;;;;;;4.38;2.40;;;;;;;;;;5081285;28;20133;-84
2021/07/22 09:47:42;;;;;;;3.40;2.00;;;;;;;;;;5080657;28;20029;-84
2021/07/22 09:50:11;;;;;;;6.03;2.10;;;;;;;;;;5081560;28;20029;-83
2021/07/22 09:52:37;;;;;;;6.15;2.20;;;;;;;;;;5013917;28;20082;-83
2021/07/22 09:55:04;;;;;;;4.63;2.15;;;;;;;;;;5081849;28;20018;-84
2021/07/22 09:57:30;;;;;;;4.00;2.13;;;;;;;;;;5081681;28;20038;-83
2021/07/22 09:59:56;;;;;;;5.32;1.70;;;;;;;;;;5014180;28;20033;-85
2021/07/22 10:02:26;;;;;;;3.75;2.40;;;;;;;;;;5083786;28;20048;-84
2021/07/22 10:04:58;;;;;;;3.95;2.08;;;;;;;;;;5081765;28;20032;-85
2021/07/22 10:07:24;;;;;;;;;;;;;;;;;;5081680;28;20037;-83
2021/07/22 10:09:52;;;;;;;4.32;2.20;;;;;;;;;;5081195;28;19952;-85
2021/07/22 10:12:25;;;;;;;5.85;2.17;;;;;;;;;;5081588;28;20029;-84
2021/07/22 10:14:54;;;;;;;6.13;2.20;;;;;;;;;;5080852;28;20026;-84
2021/07/22 10:17:20;;;;;;;40.72;3.42;;;;;;;;;;5080990;28;20060;-85
2021/07/22 10:19:47;;;;;;;3.85;2.03;;;;;;;;;;5013452;28;20113;-86
2021/07/22 10:22:14;;;;;;;5.07;2.10;;;;;;;;;;5081015;28;20033;-87
2021/07/22 10:24:40;;;;;;;8.80;2.50;;;;;;;;;;5012616;28;20022;-84
2021/07/22 10:27:07;;;;;;;6.40;2.33;;;;;;;;;;5012701;28;20075;-87
2021/07/22 10:29:35;;;;;;;7.63;2.20;;;;;;;;;;5013199;28;20462;-86
2021/07/22 10:32:01;;;;;;;5.20;2.10;;;;;;;;;;5080675;28;20033;-84
2021/07/22 10:34:28;;;;;;;5.57;2.70;;;;;;;;;;5012809;28;20054;-86
2021/07/22 10:36:54;;;;;;;6.53;2.30;;;;;;;;;;5013019;28;20054;-86
2021/07/22 10:39:43;;;;;;;9.05;2.40;;;;;;;;;;5012911;28;20065;-86
2021/07/22 10:42:29;;;;;;;6.72;2.30;;;;;;;;;;5022821;28;20057;-87
2021/07/22 10:44:56;;;;;;;4.63;2.47;;;;;;;;;;5012967;28;20028;-90
2021/07/22 10:47:22;;;;;;;4.57;2.10;;;;;;;;;;5013663;28;20386;-89
2021/07/22 10:49:49;;;;;;;4.18;2.20;;;;;;;;;;5080132;28;20036;-87
2021/07/22 10:52:15;;;;;;;4.70;1.80;;;;;;;;;;5013160;28;20033;-88
2021/07/22 10:54:43;;;;;;;6.05;2.42;;;;;;;;;;5012750;28;20026;-87
2021/07/22 10:57:28;;;;;;;5.22;2.50;;;;;;;;;;5080378;28;20034;-89
2021/07/22 10:59:55;;;;;;;9.18;2.55;;;;;;;;;;5079884;28;20030;-84
2021/07/22 11:02:56;;;;;;;5.78;2.40;;;;;;;;;;5011202;28;20074;-87
2021/07/22 11:05:26;;;;;;;3.50;2.22;;;;;;;;;;5012496;28;20030;-88
2021/07/22 11:08:10;;;;;;;5.88;3.08;;;;;;;;;;5062866;28;20398;-87
2021/07/22 11:10:50;;;;;;;4.50;2.30;;;;;;;;;;5060218;28;20022;-87
2021/07/22 11:13:35;;;;;;;5.38;2.78;;;;;;;;;;5060516;28;20038;-85
2021/07/22 11:16:04;;;;;;;9.15;2.60;;;;;;;;;;5060329;28;20121;-86
2021/07/22 11:18:43;;;;;;;5.53;2.55;;;;;;;;;;5059990;28;20137;-88
2021/07/22 11:21:28;;;;;;;3.72;2.35;;;;;;;;;;5063342;28;20130;-91
2021/07/22 11:23:59;;;;;;;5.97;2.72;;;;;;;;;;5012470;28;20360;-89
2021/07/22 11:26:25;;;;;;;6.75;2.58;;;;;;;;;;5099411;28;20083;-83
2021/07/22 11:28:52;;;;;;;4.63;2.28;;;;;;;;;;5031647;28;20394;-87
2021/07/22 11:31:20;;;;;;;4.38;2.08;;;;;;;;;;5115817;27;20026;-86
2021/07/22 11:33:46;;;;;;;3.83;2.22;;;;;;;;;;5116725;27;20516;-85
2021/07/22 11:36:13;;;;;;;5.93;2.70;;;;;;;;;;5031298;28;20042;-91
2021/07/22 11:38:39;;;;;;;5.47;2.47;;;;;;;;;;5031814;28;20022;-86
2021/07/22 11:41:15;;;;;;;5.50;2.60;;;;;;;;;;5116919;27;20034;-85
2021/07/22 11:43:42;;;;;;;6.32;2.40;;;;;;;;;;5116957;28;20416;-85
2021/07/22 11:46:10;;;;;;;4.05;2.40;;;;;;;;;;5117038;28;20022;-85
2021/07/22 11:48:36;;;;;;;4.22;2.65;;;;;;;;;;5117138;28;20036;-87
2021/07/22 11:51:04;;;;;;;7.05;2.85;;;;;;;;;;5116345;28;20031;-91
2021/07/22 11:53:30;;;;;;;7.15;2.50;;;;;;;;;;5116630;28;20022;-85
2021/07/22 11:55:57;;;;;;;4.60;2.72;;;;;;;;;;5116628;28;20102;-91
2021/07/22 11:58:24;;;;;;;4.85;2.67;;;;;;;;;;5117132;28;20042;-84
2021/07/22 12:00:51;;;;;;;5.28;2.55;;;;;;;;;;5031386;28;20021;-88
2021/07/22 12:03:22;;;;;;;5.28;2.30;;;;;;;;;;5116477;28;20036;-84
2021/07/22 12:05:49;;;;;;;3.55;2.10;;;;;;;;;;5116094;28;20109;-89
2021/07/22 12:08:16;;;;;;;11.48;2.50;;;;;;;;;;5024098;28;20701;-87
2021/07/22 12:10:42;;;;;;;4.00;2.28;;;;;;;;;;5079327;28;20029;-86
2021/07/22 12:13:08;;;;;;;4.55;2.83;;;;;;;;;;5079632;28;20026;-87
2021/07/22 12:15:38;;;;;;;7.00;3.00;;;;;;;;;;5014348;28;20030;-86
2021/07/22 12:18:05;;;;;;;5.13;2.60;;;;;;;;;;5080228;28;20117;-85
2021/07/22 12:20:33;;;;;;;5.55;2.53;;;;;;;;;;5015079;28;20026;-86
2021/07/22 12:22:59;;;;;;;4.63;2.33;;;;;;;;;;5083160;28;20398;-85
2021/07/22 12:25:27;;;;;;;4.80;2.25;;;;;;;;;;5082909;28;20026;-84
2021/07/22 12:27:53;;;;;;;7.20;2.65;;;;;;;;;;5083340;28;20022;-85
2021/07/22 12:30:23;;;;;;;5.43;2.63;;;;;;;;;;5082494;28;20110;-88
2021/07/22 12:32:53;;;;;;;4.43;2.40;;;;;;;;;;5080447;28;20367;-85
2021/07/22 12:35:29;;;;;;;5.15;2.45;;;;;;;;;;5082206;28;20094;-86
2021/07/22 12:38:02;;;;;;;5.00;2.50;;;;;;;;;;5082624;28;20055;-84
2021/07/22 12:40:51;;;;;;;4.18;2.00;;;;;;;;;;5082837;28;20049;-86
2021/07/22 12:43:18;;;;;;;6.88;2.72;;;;;;;;;;5019082;28;20042;-85
2021/07/22 12:45:45;;;;;;;9.20;2.20;;;;;;;;;;5082368;28;20025;-84
2021/07/22 12:48:12;;;;;;;4.18;2.47;;;;;;;;;;5082259;28;20471;-85
2021/07/22 12:50:39;;;;;;;5.78;2.45;;;;;;;;;;5082460;28;20029;-84
2021/07/22 12:53:07;;;;;;;4.70;2.60;;;;;;;;;;5082387;28;20022;-85
2021/07/22 12:55:39;;;;;;;5.97;3.17;;;;;;;;;;5082599;28;20026;-89
2021/07/22 12:58:05;;;;;;;5.78;2.60;;;;;;;;;;5082393;28;20030;-85
2021/07/22 13:00:41;;;;;;;5.70;2.63;;;;;;;;;;5013868;28;20033;-83
2021/07/22 13:03:07;;;;;;;5.00;2.47;;;;;;;;;;5082480;28;20053;-84
2021/07/22 13:05:33;;;;;;;4.65;2.58;;;;;;;;;;5013820;28;20071;-88
2021/07/22 13:07:59;;;;;;;4.75;2.45;;;;;;;;;;5082387;28;20196;-88
2021/07/22 13:10:25;;;;;;;4.45;2.40;;;;;;;;;;5014495;28;20029;-86
2021/07/22 13:12:51;;;;;;;5.03;2.55;;;;;;;;;;5082202;28;20094;-85
2021/07/22 13:15:18;;;;;;;4.32;2.22;;;;;;;;;;5082466;28;20026;-86
2021/07/22 13:17:45;;;;;;;4.75;2.42;;;;;;;;;;5082101;28;20486;-85
2021/07/22 13:20:20;;;;;;;4.18;2.58;;;;;;;;;;5081627;28;20037;-89
2021/07/22 13:22:49;;;;;;;5.18;2.42;;;;;;;;;;5081844;28;20037;-85
2021/07/22 13:25:16;;;;;;;4.53;2.13;;;;;;;;;;5080475;28;20399;-83
2021/07/22 13:27:42;;;;;;;5.30;2.38;;;;;;;;;;5080423;28;20032;-84
2021/07/22 13:30:09;;;;;;;4.22;2.30;;;;;;;;;;5081005;28;20026;-83
2021/07/22 13:32:36;;;;;;;5.00;2.40;;;;;;;;;;5081527;28;20044;-85
2021/07/22 13:35:12;;;;;;;4.07;1.92;;;;;;;;;;5013847;28;20097;-84
2021/07/22 13:37:39;;;;;;;6.25;2.30;;;;;;;;;;5013619;28;20045;-89
2021/07/22 13:40:08;;;;;;;3.38;2.10;;;;;;;;;;5013334;28;20056;-84
2021/07/22 13:42:34;;;;;;;7.28;2.50;;;;;;;;;;5013623;28;20104;-84
2021/07/22 13:45:00;;;;;;;4.10;2.58;;;;;;;;;;5080717;28;20497;-84
2021/07/22 13:47:26;;;;;;;4.32;2.30;;;;;;;;;;5011899;28;20029;-84
2021/07/22 13:49:53;;;;;;;4.55;2.15;;;;;;;;;;5011977;28;20106;-89
2021/07/22 13:52:20;;;;;;;6.00;2.60;;;;;;;;;;5012398;28;20022;-83
2021/07/22 13:54:47;;;;;;;5.57;2.70;;;;;;;;;;5011944;28;20021;-83
2021/07/22 13:57:13;;;;;;;6.38;2.75;;;;;;;;;;5011998;28;20045;-83
2021/07/22 13:59:39;;;;;;;7.82;2.65;;;;;;;;;;5079222;28;20036;-83
2021/07/22 14:02:06;;;;;;;4.55;2.47;;;;;;;;;;5011980;28;20018;-85
2021/07/22 14:04:32;;;;;;;4.78;2.50;;;;;;;;;;5012705;28;20028;-86
2021/07/22 14:06:59;;;;;;;10.18;2.35;;;;;;;;;;5014262;28;20030;-84
2021/07/22 14:09:25;;;;;;;5.95;2.25;;;;;;;;;;5080913;28;20034;-85
2021/07/22 14:11:51;;;;;;;10.82;2.90;;;;;;;;;;5080110;28;20018;-84
2021/07/22 14:14:17;;;;;;;3.78;2.17;;;;;;;;;;5081456;28;20025;-83
2021/07/22 14:16:44;;;;;;;4.32;2.30;;;;;;;;;;5080157;28;20547;-85
2021/07/22 14:19:10;;;;;;;4.93;2.10;;;;;;;;;;5016409;28;20032;-83
2021/07/22 14:21:36;;;;;;;6.57;2.55;;;;;;;;;;5080192;28;20034;-84
2021/07/22 14:24:02;;;;;;;5.20;2.47;;;;;;;;;;5079520;28;20393;-82
2021/07/22 14:26:28;;;;;;;5.05;2.67;;;;;;;;;;5011985;28;20037;-83
2021/07/22 14:28:55;;;;;;;5.38;2.70;;;;;;;;;;5080733;28;20018;-83
2021/07/22 14:31:22;;;;;;;7.32;2.92;;;;;;;;;;5013498;28;20041;-84
2021/07/22 14:33:48;;;;;;;4.68;2.40;;;;;;;;;;5080988;28;20112;-83
2021/07/22 14:36:14;;;;;;;4.65;2.90;;;;;;;;;;5012264;28;20109;-84
2021/07/22 14:38:48;;;;;;;4.47;2.67;;;;;;;;;;5079192;28;20022;-83
2021/07/22 14:41:14;;;;;;;5.07;2.50;;;;;;;;;;5079132;28;20022;-83
2021/07/22 14:43:40;;;;;;;5.03;2.33;;;;;;;;;;5078715;28;20096;-82
2021/07/22 14:46:06;;;;;;;5.38;2.80;;;;;;;;;;5010325;28;20029;-82